createdAt,value
2023-04-28T00:02:24.791Z,78.32
2023-04-28T00:04:52.884Z,78.23
2023-04-28T00:07:21.283Z,78.42
2023-04-28T00:09:49.110Z,78.43
2023-04-28T00:12:16.852Z,78.56
2023-04-28T00:14:44.771Z,77.67
2023-04-28T00:17:12.543Z,78.65
2023-04-28T00:19:40.497Z,79.12
2023-04-28T00:22:08.795Z,79.30
2023-04-28T00:24:37.257Z,79.10
2023-04-28T00:27:05.034Z,79.11
2023-04-28T00:29:32.930Z,79.32
2023-04-28T00:32:00.844Z,79.31
2023-04-28T00:34:30.085Z,79.25
2023-04-28T00:36:57.973Z,79.17
2023-04-28T00:39:27.790Z,79.37
2023-04-28T00:41:56.024Z,79.55
2023-04-28T00:44:23.865Z,79.52
2023-04-28T00:46:51.705Z,79.85
2023-04-28T00:49:19.590Z,79.93
2023-04-28T00:51:47.301Z,79.43
2023-04-28T00:54:15.343Z,79.65
2023-04-28T00:56:43.747Z,79.69
2023-04-28T00:59:11.592Z,78.94
2023-04-28T01:01:39.395Z,78.67
2023-04-28T01:04:07.689Z,78.29
2023-04-28T01:06:37.495Z,78.90
2023-04-28T01:09:07.534Z,79.06
2023-04-28T01:11:37.540Z,79.27
2023-04-28T01:14:09.577Z,79.82
2023-04-28T01:16:40.823Z,79.86
2023-04-28T01:19:17.331Z,80.02
2023-04-28T01:21:45.411Z,80.84
2023-04-28T01:24:19.097Z,80.31
2023-04-28T01:26:47.088Z,81.21
2023-04-28T01:29:14.868Z,80.94
2023-04-28T01:31:42.953Z,80.82
2023-04-28T01:34:11.298Z,80.60
2023-04-28T01:36:39.376Z,79.28
2023-04-28T01:39:07.649Z,79.45
2023-04-28T01:41:35.433Z,80.54
2023-04-28T01:44:06.279Z,81.65
2023-04-28T01:46:34.934Z,81.04
2023-04-28T01:49:02.849Z,80.00
2023-04-28T01:51:31.300Z,80.24
2023-04-28T01:53:59.058Z,81.33
2023-04-28T01:56:26.818Z,80.93
2023-04-28T01:58:56.144Z,80.52
2023-04-28T02:01:24.259Z,80.89
2023-04-28T02:03:52.412Z,81.28
2023-04-28T02:06:20.581Z,80.83
2023-04-28T02:08:48.428Z,79.92
2023-04-28T02:11:16.250Z,82.30
2023-04-28T02:13:44.107Z,81.27
2023-04-28T02:16:12.192Z,81.18
2023-04-28T02:18:40.574Z,81.11
2023-04-28T02:21:11.000Z,81.18
2023-04-28T02:23:40.083Z,80.34
2023-04-28T02:26:08.345Z,80.28
2023-04-28T02:28:36.174Z,81.01
2023-04-28T02:31:08.702Z,81.21
2023-04-28T02:33:37.749Z,80.39
2023-04-28T02:36:06.866Z,80.36
2023-04-28T02:38:34.973Z,80.24
2023-04-28T02:41:09.379Z,82.29
2023-04-28T02:43:37.701Z,82.58
2023-04-28T02:46:05.975Z,81.52
2023-04-28T02:48:35.814Z,81.79
2023-04-28T02:51:03.611Z,80.93
2023-04-28T02:53:32.001Z,80.95
2023-04-28T02:56:02.081Z,80.84
2023-04-28T02:58:30.227Z,81.28
2023-04-28T03:00:58.470Z,81.57
2023-04-28T03:03:26.897Z,81.35
2023-04-28T03:05:56.877Z,81.12
2023-04-28T03:08:24.732Z,81.00
2023-04-28T03:10:54.297Z,81.40
2023-04-28T03:13:22.064Z,81.44
2023-04-28T03:15:50.350Z,81.44
2023-04-28T03:18:18.842Z,81.48
2023-04-28T03:20:46.764Z,81.32
2023-04-28T03:23:14.584Z,81.39
2023-04-28T03:25:42.492Z,81.62
2023-04-28T03:28:10.807Z,81.50
2023-04-28T03:30:38.648Z,81.30
2023-04-28T03:33:06.993Z,81.12
2023-04-28T03:35:34.817Z,81.10
2023-04-28T03:38:03.044Z,81.34
2023-04-28T03:40:31.317Z,80.96
2023-04-28T03:43:19.108Z,81.08
2023-04-28T03:46:09.921Z,81.61
2023-04-28T03:48:37.953Z,81.17
2023-04-28T03:51:06.040Z,80.22
2023-04-28T03:53:33.913Z,80.73
2023-04-28T03:56:01.841Z,81.13
2023-04-28T03:58:29.709Z,80.91
2023-04-28T04:00:57.544Z,81.48
2023-04-28T04:03:27.165Z,81.97
2023-04-28T04:05:57.059Z,82.11
2023-04-28T04:08:25.498Z,81.81
2023-04-28T04:10:54.971Z,81.48
2023-04-28T04:13:23.142Z,81.95
2023-04-28T04:15:52.754Z,82.08
2023-04-28T04:18:21.418Z,82.27
2023-04-28T04:21:13.009Z,82.68
2023-04-28T04:23:41.247Z,82.56
2023-04-28T04:26:08.953Z,81.99
2023-04-28T04:28:37.152Z,83.00
2023-04-28T04:31:06.415Z,82.96
2023-04-28T04:33:34.761Z,82.41
2023-04-28T04:36:03.304Z,82.26
2023-04-28T04:38:31.550Z,81.74
2023-04-28T04:41:02.148Z,81.32
2023-04-28T04:43:30.167Z,82.25
2023-04-28T04:45:57.974Z,80.65
2023-04-28T04:48:25.964Z,80.77
2023-04-28T04:50:53.838Z,79.08
2023-04-28T04:53:21.626Z,78.44
2023-04-28T04:55:49.579Z,79.03
2023-04-28T04:58:17.974Z,78.50
2023-04-28T05:01:04.851Z,78.46
2023-04-28T05:03:33.279Z,78.15
2023-04-28T05:06:02.950Z,78.23
2023-04-28T05:08:36.296Z,78.06
2023-04-28T05:11:05.058Z,77.34
2023-04-28T05:13:32.800Z,77.54
2023-04-28T05:16:02.639Z,77.73
2023-04-28T05:18:56.481Z,76.58
2023-04-28T05:21:24.302Z,76.34
2023-04-28T05:23:52.514Z,76.10
2023-04-28T05:26:20.818Z,76.46
2023-04-28T05:28:48.728Z,75.81
2023-04-28T05:31:16.574Z,75.53
2023-04-28T05:33:44.510Z,74.58
2023-04-28T05:36:13.103Z,74.21
2023-04-28T05:38:41.063Z,74.19
2023-04-28T05:41:08.928Z,73.89
2023-04-28T05:43:37.165Z,72.13
2023-04-28T05:46:09.752Z,72.90
2023-04-28T05:48:43.997Z,72.24
2023-04-28T05:51:12.000Z,72.24
2023-04-28T05:53:40.050Z,72.13
2023-04-28T05:56:08.388Z,71.76
2023-04-28T05:58:36.249Z,71.30
2023-04-28T06:01:05.114Z,70.89
2023-04-28T06:03:33.983Z,70.77
2023-04-28T06:06:03.073Z,69.19
2023-04-28T06:08:31.872Z,68.89
2023-04-28T06:10:59.643Z,68.13
2023-04-28T06:13:27.837Z,68.76
2023-04-28T06:15:56.007Z,68.35
2023-04-28T06:18:24.444Z,66.95
2023-04-28T06:20:52.244Z,65.53
2023-04-28T06:23:21.192Z,64.35
2023-04-28T06:25:50.201Z,64.59
2023-04-28T06:28:18.085Z,65.66
2023-04-28T06:30:46.408Z,64.46
2023-04-28T06:33:14.160Z,64.09
2023-04-28T06:35:42.135Z,62.99
2023-04-28T06:38:10.197Z,62.46
2023-04-28T06:40:38.258Z,61.46
2023-04-28T06:43:07.369Z,61.04
2023-04-28T06:46:01.632Z,61.16
2023-04-28T06:48:29.460Z,59.88
2023-04-28T06:50:57.214Z,58.70
2023-04-28T06:53:24.947Z,59.21
2023-04-28T06:55:53.022Z,57.39
2023-04-28T06:58:21.895Z,58.59
2023-04-28T07:00:49.689Z,55.07
2023-04-28T07:03:17.771Z,56.69
2023-04-28T07:05:46.297Z,55.58
2023-04-28T07:08:14.147Z,55.10
2023-04-28T07:10:42.289Z,55.14
2023-04-28T07:13:10.618Z,55.59
2023-04-28T07:15:38.778Z,53.78
2023-04-28T07:18:07.530Z,53.99
2023-04-28T07:20:35.516Z,53.04
2023-04-28T07:23:03.473Z,54.03
2023-04-28T07:25:32.121Z,52.01
2023-04-28T07:27:59.990Z,50.38
2023-04-28T07:30:28.429Z,50.29
2023-04-28T07:32:56.391Z,49.16
2023-04-28T07:49:04.786Z,44.79
2023-04-28T07:51:32.598Z,44.11
2023-04-28T07:54:00.584Z,42.73
2023-04-28T07:56:28.304Z,43.98
2023-04-28T07:58:57.131Z,44.69
2023-04-28T08:01:25.216Z,43.67
2023-04-28T08:03:53.171Z,44.56
2023-04-28T08:06:21.208Z,42.25
2023-04-28T08:08:49.289Z,39.42
2023-04-28T08:11:17.032Z,41.58
2023-04-28T08:13:44.785Z,41.15
2023-04-28T08:16:12.795Z,38.11
2023-04-28T08:18:40.942Z,38.36
2023-04-28T08:21:09.711Z,37.26
2023-04-28T08:23:37.546Z,37.96
2023-04-28T08:26:05.849Z,37.58
2023-04-28T08:28:34.097Z,37.14
2023-04-28T08:31:01.958Z,36.98
2023-04-28T08:33:29.712Z,36.57
2023-04-28T08:35:57.745Z,35.35
2023-04-28T08:38:26.619Z,35.29
2023-04-28T08:40:54.411Z,35.37
2023-04-28T08:43:22.495Z,34.02
2023-04-28T08:45:50.308Z,34.99
2023-04-28T08:48:23.326Z,34.57
2023-04-28T08:50:53.487Z,34.82
2023-04-28T08:53:26.911Z,34.63
2023-04-28T08:55:56.977Z,35.09
2023-04-28T08:58:26.491Z,36.32
2023-04-28T09:00:54.721Z,36.84
2023-04-28T09:03:22.728Z,37.93
2023-04-28T09:05:50.925Z,38.11
2023-04-28T09:08:19.164Z,38.31
2023-04-28T09:10:47.086Z,38.08
2023-04-28T09:13:33.468Z,38.35
2023-04-28T09:16:03.216Z,39.01
2023-04-28T09:18:34.608Z,36.91
2023-04-28T09:21:08.359Z,39.28
2023-04-28T09:23:49.355Z,37.68
2023-04-28T09:26:17.177Z,37.68
2023-04-28T09:28:44.866Z,38.41
2023-04-28T09:31:25.174Z,36.14
2023-04-28T09:34:00.309Z,36.36
2023-04-28T09:36:30.996Z,35.92
2023-04-28T09:39:00.313Z,34.93
2023-04-28T09:41:42.794Z,35.38
2023-04-28T09:44:11.876Z,34.58
2023-04-28T09:46:40.347Z,33.94
2023-04-28T09:49:08.809Z,34.47
2023-04-28T09:51:36.893Z,34.74
2023-04-28T09:54:05.074Z,35.26
2023-04-28T09:56:35.004Z,36.30
2023-04-28T09:59:02.924Z,34.10
2023-04-28T10:01:39.020Z,35.14
2023-04-28T10:04:09.783Z,35.87
2023-04-28T10:06:38.093Z,35.45
2023-04-28T10:09:06.807Z,34.87
2023-04-28T10:11:35.337Z,35.24
2023-04-28T10:14:03.287Z,34.90
2023-04-28T10:16:33.280Z,36.66
2023-04-28T10:19:03.353Z,35.22
2023-04-28T10:21:35.764Z,35.80
2023-04-28T10:24:15.076Z,36.38
2023-04-28T10:27:02.081Z,37.28
2023-04-28T10:29:32.527Z,37.10
2023-04-28T10:32:24.111Z,37.74
2023-04-28T10:34:52.595Z,37.56
2023-04-28T10:37:20.965Z,37.19
2023-04-28T10:40:34.649Z,35.00
2023-04-28T10:43:03.468Z,32.94
2023-04-28T10:45:56.258Z,31.24
2023-04-28T10:48:33.879Z,29.08
2023-04-28T10:51:07.924Z,29.74
2023-04-28T10:53:54.269Z,29.81
2023-04-28T10:56:27.155Z,29.27
2023-04-28T10:58:56.080Z,29.99
2023-04-28T11:01:29.753Z,28.76
2023-04-28T11:04:03.637Z,29.19
2023-04-28T11:06:35.940Z,29.24
2023-04-28T11:09:32.932Z,29.95
2023-04-28T11:12:00.835Z,29.15
2023-04-28T11:14:29.997Z,29.89
2023-04-28T11:17:13.450Z,28.94
2023-04-28T11:19:43.862Z,29.49
2023-04-28T11:22:20.617Z,27.98
2023-04-28T11:25:01.919Z,28.98
2023-04-28T11:27:31.421Z,31.51
2023-04-28T11:30:00.218Z,30.94
2023-04-28T11:32:30.791Z,28.86
2023-04-28T11:34:58.646Z,28.94
2023-04-28T11:37:27.228Z,29.55
2023-04-28T11:39:55.146Z,30.15
2023-04-28T11:42:26.248Z,29.98
2023-04-28T11:44:55.035Z,29.70
2023-04-28T11:47:31.438Z,28.58
2023-04-28T11:49:59.395Z,29.69
2023-04-28T11:52:27.643Z,31.31
2023-04-28T11:55:03.036Z,30.27
2023-04-28T11:57:30.871Z,30.79
2023-04-28T12:00:22.131Z,30.93
2023-04-28T12:02:50.882Z,31.42
2023-04-28T12:05:22.169Z,32.63
2023-04-28T12:07:50.384Z,33.11
2023-04-28T12:10:19.799Z,33.92
2023-04-28T12:12:52.826Z,33.76
2023-04-28T12:15:22.693Z,32.70
2023-04-28T12:17:51.609Z,31.79
2023-04-28T12:20:39.357Z,32.00
2023-04-28T12:23:08.534Z,31.95
2023-04-28T12:25:46.257Z,32.78
2023-04-28T12:28:14.064Z,32.86
2023-04-28T12:30:42.804Z,32.51
2023-04-28T12:33:24.682Z,33.51
2023-04-28T12:35:57.891Z,33.25
2023-04-28T12:38:27.224Z,33.20
2023-04-28T12:40:55.190Z,32.68
2023-04-28T12:43:24.184Z,33.81
2023-04-28T12:45:56.567Z,33.59
2023-04-28T12:48:25.183Z,32.81
2023-04-28T12:50:53.092Z,34.23
2023-04-28T12:53:20.947Z,32.89
2023-04-28T12:55:48.903Z,35.01
2023-04-28T12:58:17.935Z,33.61
2023-04-28T13:00:45.737Z,32.81
2023-04-28T13:03:13.613Z,33.38
2023-04-28T13:05:41.481Z,32.48
2023-04-28T13:08:09.597Z,32.64
2023-04-28T13:10:37.396Z,33.23
2023-04-28T13:13:05.608Z,33.38
2023-04-28T13:15:33.417Z,32.48
2023-04-28T13:18:01.188Z,32.18
2023-04-28T13:20:29.019Z,32.50
2023-04-28T13:22:56.737Z,32.42
2023-04-28T13:25:25.192Z,32.09
2023-04-28T13:27:52.976Z,32.64
2023-04-28T13:30:20.894Z,32.29
2023-04-28T13:32:49.444Z,31.93
2023-04-28T13:35:17.848Z,32.17
2023-04-28T13:37:46.222Z,33.12
2023-04-28T13:40:13.988Z,32.30
2023-04-28T13:42:41.759Z,33.61
2023-04-28T13:45:09.971Z,32.95
2023-04-28T13:47:38.140Z,32.03
2023-04-28T13:50:06.651Z,32.56
2023-04-28T13:52:34.474Z,33.47
2023-04-28T13:55:02.341Z,33.45
2023-04-28T13:57:30.520Z,32.94
2023-04-28T13:59:58.328Z,31.95
2023-04-28T14:02:27.456Z,31.79
2023-04-28T14:04:55.951Z,32.66
2023-04-28T14:07:23.823Z,33.55
2023-04-28T14:09:51.692Z,33.74
2023-04-28T14:12:19.406Z,33.15
2023-04-28T14:14:49.576Z,32.89
2023-04-28T14:17:17.640Z,32.30
2023-04-28T14:19:45.905Z,33.09
2023-04-28T14:22:13.625Z,32.88
2023-04-28T14:24:43.084Z,33.30
2023-04-28T14:27:11.118Z,32.86
2023-04-28T14:29:39.094Z,32.24
2023-04-28T14:32:07.255Z,33.98
2023-04-28T14:34:34.978Z,34.23
2023-04-28T14:37:02.795Z,34.06
2023-04-28T14:39:30.630Z,33.92
2023-04-28T14:41:58.375Z,34.06
2023-04-28T14:44:26.092Z,34.05
2023-04-28T14:46:54.357Z,33.59
2023-04-28T14:49:23.061Z,33.05
2023-04-28T14:51:50.893Z,33.02
2023-04-28T14:54:18.923Z,33.34
2023-04-28T14:56:46.607Z,33.45
2023-04-28T14:59:14.395Z,33.45
2023-04-28T15:01:42.539Z,33.26
2023-04-28T15:04:10.410Z,34.11
2023-04-28T15:06:38.269Z,33.60
2023-04-28T15:09:06.239Z,33.02
2023-04-28T15:11:34.187Z,32.93
2023-04-28T15:14:01.976Z,32.64
2023-04-28T15:16:29.804Z,32.52
2023-04-28T15:18:58.117Z,32.89
2023-04-28T15:21:26.314Z,32.58
2023-04-28T15:23:54.498Z,33.06
2023-04-28T15:26:23.625Z,32.67
2023-04-28T15:28:51.415Z,33.39
2023-04-28T15:31:19.507Z,32.96
2023-04-28T15:33:47.718Z,33.36
2023-04-28T15:36:15.606Z,33.30
2023-04-28T15:38:45.450Z,33.96
2023-04-28T15:41:15.082Z,34.57
2023-04-28T15:43:44.485Z,34.99
2023-04-28T15:46:14.931Z,35.71
2023-04-28T15:48:43.798Z,35.21
2023-04-28T15:51:11.739Z,35.32
2023-04-28T15:53:40.024Z,35.30
2023-04-28T15:56:08.290Z,35.18
2023-04-28T15:58:36.493Z,35.27
2023-04-28T16:01:05.137Z,35.43
2023-04-28T16:03:33.035Z,35.65
2023-04-28T16:06:01.210Z,36.02
2023-04-28T16:08:29.376Z,36.42
2023-04-28T16:10:57.371Z,36.94
2023-04-28T16:13:25.136Z,37.16
2023-04-28T16:15:53.227Z,37.42
2023-04-28T16:18:21.149Z,37.42
2023-04-28T16:20:49.167Z,37.97
2023-04-28T16:23:16.922Z,37.73
2023-04-28T16:25:44.861Z,37.69
2023-04-28T16:28:12.617Z,38.35
2023-04-28T16:30:41.144Z,38.16
2023-04-28T16:33:09.095Z,38.61
2023-04-28T16:35:36.901Z,38.85
2023-04-28T16:38:05.233Z,39.14
2023-04-28T16:40:32.998Z,39.75
2023-04-28T16:43:00.844Z,39.58
2023-04-28T16:45:29.265Z,39.97
2023-04-28T16:47:57.388Z,40.21
2023-04-28T16:50:25.138Z,40.69
2023-04-28T16:52:52.960Z,40.76
2023-04-28T16:55:20.792Z,41.23
2023-04-28T16:57:48.863Z,41.28
2023-04-28T17:00:17.370Z,41.92
2023-04-28T17:02:45.236Z,42.04
2023-04-28T17:05:13.301Z,41.82
2023-04-28T17:07:41.313Z,42.86
2023-04-28T17:10:09.659Z,42.84
2023-04-28T17:12:37.588Z,43.15
2023-04-28T17:15:09.505Z,43.57
2023-04-28T17:17:37.846Z,44.05
2023-04-28T17:20:06.360Z,43.75
2023-04-28T17:22:35.369Z,43.86
2023-04-28T17:25:03.802Z,44.70
2023-04-28T17:27:31.844Z,44.96
2023-04-28T17:29:59.713Z,45.07
2023-04-28T17:32:30.748Z,45.86
2023-04-28T17:34:58.933Z,45.55
2023-04-28T17:37:26.719Z,46.35
2023-04-28T17:39:54.457Z,45.96
2023-04-28T17:42:22.279Z,46.26
2023-04-28T17:44:50.923Z,45.50
2023-04-28T17:47:19.438Z,45.35
2023-04-28T17:49:47.149Z,47.14
2023-04-28T17:52:15.526Z,46.61
2023-04-28T17:54:43.885Z,47.54
2023-04-28T17:57:12.436Z,47.42
2023-04-28T17:59:40.701Z,46.81
2023-04-28T18:02:11.920Z,47.17
2023-04-28T18:04:40.176Z,47.54
2023-04-28T18:07:08.268Z,47.56
2023-04-28T18:09:36.061Z,48.37
2023-04-28T18:12:07.137Z,48.10
2023-04-28T18:14:35.049Z,47.85
2023-04-28T18:17:03.011Z,48.48
2023-04-28T18:19:31.065Z,48.92
2023-04-28T18:21:59.046Z,52.37
2023-04-28T18:24:26.808Z,52.13
2023-04-28T18:26:54.712Z,53.40
2023-04-28T18:29:22.604Z,52.40
2023-04-28T18:31:51.487Z,51.42
2023-04-28T18:34:19.936Z,51.95
2023-04-28T18:36:47.734Z,51.51
2023-04-28T18:39:15.654Z,52.37
2023-04-28T18:41:44.220Z,55.09
2023-04-28T18:44:12.005Z,51.85
2023-04-28T18:46:40.193Z,51.46
2023-04-28T18:49:07.972Z,53.10
2023-04-28T18:51:36.040Z,53.33
2023-04-28T18:54:04.843Z,54.57
2023-04-28T18:56:32.656Z,53.06
2023-04-28T18:59:00.621Z,51.87
2023-04-28T19:01:28.579Z,52.75
2023-04-28T19:03:56.789Z,54.32
2023-04-28T19:06:24.950Z,53.79
2023-04-28T19:08:53.262Z,54.03
2023-04-28T19:11:21.268Z,55.10
2023-04-28T19:13:50.279Z,55.31
2023-04-28T19:16:18.654Z,54.84
2023-04-28T19:18:46.503Z,55.43
2023-04-28T19:21:14.410Z,54.30
2023-04-28T19:23:42.324Z,55.87
2023-04-28T19:26:10.454Z,54.93
2023-04-28T19:28:38.294Z,55.43
2023-04-28T19:31:06.120Z,56.30
2023-04-28T19:33:33.883Z,55.34
2023-04-28T19:36:01.682Z,55.15
2023-04-28T19:38:29.513Z,55.91
2023-04-28T19:41:01.162Z,54.56
2023-04-28T19:43:29.883Z,56.37
2023-04-28T19:45:57.983Z,56.35
2023-04-28T19:48:28.780Z,56.39
2023-04-28T19:50:57.322Z,56.40
2023-04-28T19:53:25.116Z,55.87
2023-04-28T19:55:53.143Z,57.20
2023-04-28T19:58:22.295Z,58.66
2023-04-28T20:00:50.071Z,57.76
2023-04-28T20:03:18.087Z,56.21
2023-04-28T20:05:46.017Z,56.82
2023-04-28T20:08:13.969Z,57.21
2023-04-28T20:10:42.470Z,56.92
2023-04-28T20:13:10.161Z,57.34
2023-04-28T20:15:38.050Z,57.03
2023-04-28T20:18:06.211Z,57.51
2023-04-28T20:20:34.317Z,57.12
2023-04-28T20:23:02.154Z,58.34
2023-04-28T20:25:30.036Z,57.10
2023-04-28T20:27:58.197Z,57.58
2023-04-28T20:30:27.753Z,57.25
2023-04-28T20:32:55.522Z,56.94
2023-04-28T20:35:23.341Z,57.23
2023-04-28T20:37:51.121Z,57.21
2023-04-28T20:40:18.908Z,57.08
2023-04-28T20:42:46.621Z,58.64
2023-04-28T20:45:14.394Z,59.40
2023-04-28T20:47:42.487Z,58.67
2023-04-28T20:50:11.589Z,58.96
2023-04-28T20:52:39.452Z,58.89
2023-04-28T20:55:08.525Z,58.19
2023-04-28T20:57:36.224Z,59.42
2023-04-28T21:00:05.279Z,60.73
2023-04-28T21:02:33.340Z,60.06
2023-04-28T21:05:01.743Z,59.42
2023-04-28T21:07:29.545Z,59.63
2023-04-28T21:09:58.091Z,61.25
2023-04-28T21:12:25.948Z,59.30
2023-04-28T21:14:53.770Z,59.54
2023-04-28T21:17:21.471Z,60.15
2023-04-28T21:19:49.475Z,60.38
2023-04-28T21:22:17.570Z,60.76
2023-04-28T21:24:45.290Z,59.44
2023-04-28T21:27:13.054Z,60.82
2023-04-28T21:29:40.897Z,60.04
2023-04-28T21:32:09.309Z,61.97
2023-04-28T21:34:37.355Z,61.05
2023-04-28T21:37:05.714Z,61.80
2023-04-28T21:39:33.939Z,61.73
2023-04-28T21:42:01.830Z,62.27
2023-04-28T21:44:29.944Z,61.55
2023-04-28T21:46:57.841Z,61.80
2023-04-28T21:49:25.988Z,63.33
2023-04-28T21:51:53.776Z,61.48
2023-04-28T21:54:21.652Z,63.18
2023-04-28T21:56:49.664Z,63.84
2023-04-28T21:59:18.072Z,62.99
2023-04-28T22:01:46.506Z,62.48
2023-04-28T22:04:15.120Z,63.12
2023-04-28T22:06:44.993Z,62.50
2023-04-28T22:09:13.660Z,64.25
2023-04-28T22:11:41.575Z,64.34
2023-04-28T22:14:11.990Z,61.84
2023-04-28T22:16:43.129Z,63.40
2023-04-28T22:19:11.467Z,63.44
2023-04-28T22:21:39.778Z,62.69
2023-04-28T22:24:08.269Z,63.42
2023-04-28T22:26:36.598Z,64.54
2023-04-28T22:29:04.336Z,65.34
2023-04-28T22:31:32.363Z,65.08
2023-04-28T22:34:00.080Z,65.86
2023-04-28T22:36:28.207Z,64.29
2023-04-28T22:38:56.160Z,66.37
2023-04-28T22:41:24.589Z,64.39
2023-04-28T22:43:53.441Z,64.31
2023-04-28T22:46:21.182Z,65.63
2023-04-28T22:48:49.892Z,65.01
2023-04-28T22:51:17.642Z,65.36
2023-04-28T22:53:46.738Z,65.58
2023-04-28T22:56:16.131Z,65.05
2023-04-28T22:58:44.785Z,67.03
2023-04-28T23:01:12.706Z,67.73
2023-04-28T23:03:41.663Z,65.73
2023-04-28T23:06:09.669Z,65.45
2023-04-28T23:08:37.504Z,66.11
2023-04-28T23:11:06.803Z,66.63
2023-04-28T23:13:34.910Z,65.85
2023-04-28T23:16:02.707Z,67.95
2023-04-28T23:18:32.761Z,66.43
2023-04-28T23:21:00.642Z,65.81
2023-04-28T23:23:28.387Z,66.59
2023-04-28T23:25:56.835Z,67.01
2023-04-28T23:28:24.727Z,66.08
2023-04-28T23:30:52.493Z,65.67
2023-04-28T23:33:20.322Z,65.60
2023-04-28T23:35:48.259Z,66.80
2023-04-28T23:38:16.866Z,66.11
2023-04-28T23:40:44.634Z,66.05
2023-04-28T23:43:14.678Z,65.81
2023-04-28T23:45:42.790Z,65.26
2023-04-28T23:48:11.147Z,66.97
2023-04-28T23:50:38.934Z,66.78
2023-04-28T23:53:06.758Z,67.12
2023-04-28T23:55:34.479Z,66.14
2023-04-28T23:58:02.180Z,67.09
